FW1747 Weather Reports


Display with metric or nautical units.
time (UTC)temp
F
wind
direction
speed
MPH
gust
MPH
rain 1hr
in
rain 24hr
in
rain mn
in
humidity
%
barometer
mb
20200602120127 51 335 1.0 4.0 0.00 0.00 0.00 81 1022.7
20200602114514 51 360 1.0 4.0 0.00 0.00 0.00 81 1022.6
20200602113014 51 355 1.0 5.0 0.00 0.00 0.00 81 1022.4
20200602110008 50 347 2.0 4.0 0.00 0.00 0.00 83 1022.2
20200602104515 50 349 0.0 2.0 0.00 0.00 0.00 84 1022.5
20200602103026 51 10 0.0 0.0 0.00 0.00 0.00 83 1022.5
20200602100059 52 10 0.0 2.0 0.00 0.00 0.00 80 1022.5
20200602094614 52 10 1.0 5.0 0.00 0.00 0.00 80 1022.4
20200602093152 52 355 2.0 5.0 0.00 0.00 0.00 80 1022.5
20200602090135 53 331 1.0 3.0 0.00 0.00 0.00 78 1022.7
20200602084613 54 333 1.0 3.0 0.00 0.00 0.00 77 1022.6
20200602083209 54 333 1.0 4.0 0.00 0.00 0.00 76 1022.5
20200602080116 54 319 0.0 4.0 0.00 0.00 0.00 77 1022.5
20200602074642 54 334 0.0 3.0 0.00 0.00 0.00 77 1022.5
20200602073054 55 334 0.0 1.0 0.00 0.00 0.00 75 1022.6
20200602070106 55 360 0.0 3.0 0.00 0.00 0.00 74 1022.7
20200602064656 55 355 0.0 0.0 0.00 0.00 0.00 74 1022.7
20200602063213 55 355 0.0 0.0 0.00 0.00 0.00 73 1022.7
20200602060140 56 355 0.0 2.0 0.00 0.00 0.00 70 1022.6
20200602054549 57 355 0.0 0.0 0.00 0.00 0.00 70 1022.7
20200602053123 57 355 0.0 1.0 0.00 0.00 0.00 70 1022.6
20200602050141 58 355 0.0 1.0 0.00 0.00 0.00 67 1022.4
20200602044648 59 355 0.0 1.0 0.00 0.00 0.00 67 1022.3
20200602043041 59 355 0.0 2.0 0.00 0.00 0.00 63 1022.2
20200602040154 63 298 0.0 1.0 0.00 0.00 0.00 57 1021.7
20200602034624 65 298 0.0 1.0 0.00 0.00 0.00 55 1021.7
20200602033038 65 298 0.0 3.0 0.00 0.00 0.00 51 1021.6
20200602030137 67 58 1.0 4.0 0.00 0.00 0.00 50 1021.5
20200602024544 68 37 0.0 5.0 0.00 0.00 0.00 49 1021.5
20200602023205 69 43 0.0 5.0 0.00 0.00 0.00 47 1021.4
20200602020113 69 20 3.0 6.0 0.00 0.00 0.00 47 1021.3
20200602014606 69 330 2.0 5.0 0.00 0.00 0.00 46 1021.3
20200602013100 69 21 2.0 7.0 0.00 0.00 0.00 45 1021.4
20200602010110 69 333 3.0 7.0 0.00 0.00 0.00 46 1021.5
20200602004557 69 11 4.0 10.0 0.00 0.00 0.00 47 1021.4
20200602003126 69 342 3.0 9.0 0.00 0.00 0.00 45 1021.4
20200602000111 69 103 1.0 8.0 0.00 0.00 0.00 44 1021.3
20200601234551 69 5 5.0 10.0 0.00 0.00 0.00 45 1021.4
20200601233052 68 25 6.0 11.0 0.00 0.00 0.00 45 1021.5
20200601230049 69 355 3.0 6.0 0.00 0.00 0.00 45 1021.5
20200601224547 68 312 4.0 8.0 0.00 0.00 0.00 45 1021.4
20200601223051 67 13 3.0 12.0 0.00 0.00 0.00 44 1021.5
20200601220038 66 5 6.0 11.0 0.00 0.00 0.00 44 1021.6
20200601214533 66 5 2.0 7.0 0.00 0.00 0.00 45 1021.7
20200601213100 65 24 4.0 10.0 0.00 0.00 0.00 44 1021.7
20200601210028 65 11 5.0 11.0 0.00 0.00 0.00 47 1021.8
20200601204544 64 15 3.0 8.0 0.00 0.00 0.00 49 1021.8
20200601203031 63 346 4.0 8.0 0.00 0.00 0.00 46 1021.8
20200601200018 64 315 3.0 9.0 0.00 0.00 0.00 52 1021.7
20200601194539 62 313 2.0 9.0 0.00 0.00 0.00 51 1021.8
20200601193013 61 53 1.0 11.0 0.00 0.00 0.00 52 1021.8
20200601190046 62 24 2.0 8.0 0.00 0.00 0.00 53 1022.0
20200601184522 61 355 2.0 7.0 0.00 0.00 0.00 57 1021.9
20200601183022 60 9 4.0 8.0 0.00 0.00 0.00 57 1022.0
20200601180005 59 5 3.0 8.0 0.00 0.00 0.00 61 1022.0
20200601174506 58 51 2.0 7.0 0.00 0.00 0.00 61 1021.9
20200601173119 57 19 3.0 9.0 0.00 0.00 0.00 64 1021.9
20200601170127 56 35 4.0 9.0 0.00 0.00 0.00 66 1022.1
20200601164644 55 19 5.0 10.0 0.00 0.00 0.00 68 1021.9
20200601163058 55 313 3.0 9.0 0.00 0.00 0.00 70 1021.8
20200601160121 54 360 3.0 8.0 0.00 0.00 0.00 72 1021.8
20200601154720 53 321 6.0 9.0 0.00 0.00 0.00 73 1021.8
20200601153140 52 36 5.0 10.0 0.00 0.00 0.00 76 1021.6
20200601150110 52 317 4.0 9.0 0.00 0.00 0.00 77 1021.4
20200601144609 51 339 3.0 7.0 0.00 0.00 0.00 78 1021.4
20200601143029 50 5 2.0 7.0 0.00 0.00 0.00 81 1021.2
20200601140030 48 310 2.0 4.0 0.00 0.00 0.00 85 1021.0
20200601134555 46 334 0.0 2.0 0.00 0.00 0.00 89 1020.9
20200601133039 44 70 0.0 0.0 0.00 0.00 0.00 91 1020.8
20200601130022 43 265 0.0 1.0 0.00 0.00 0.00 90 1020.5
20200601124541 44 18 0.0 1.0 0.00 0.00 0.00 90 1020.4
20200601123025 43 78 0.0 1.0 0.00 0.00 0.00 90 1020.2